Time;durP1;ratioP1;P1;durP2;ratioP2;P2;SDS_P1;SDS_P2;PMS_P1;PMS_P2;Temp;Humidity;BMP_temperature;BMP_pressure;BME280_temperature;BME280_humidity;BME280_pressure;Samples;Min_cycle;Max_cycle;Signal;HPM_P1;HPM_P2
2022/06/20 00:02:24;;;;;;;5.70;5.20;;;20.00;99.90;;;;;;5035975;28;20484;-89
2022/06/20 00:04:52;;;;;;;6.15;5.65;;;20.10;99.90;;;;;;5030020;28;20029;-88
2022/06/20 00:07:18;;;;;;;5.47;5.07;;;20.00;99.90;;;;;;5034700;28;20038;-90
2022/06/20 00:09:44;;;;;;;7.05;5.47;;;20.00;99.90;;;;;;5032160;28;20021;-90
2022/06/20 00:12:17;;;;;;;6.68;5.97;;;20.00;99.90;;;;;;5036138;28;20025;-90
2022/06/20 00:14:43;;;;;;;7.05;6.15;;;20.00;99.90;;;;;;5034715;28;20035;-90
2022/06/20 00:17:11;;;;;;;8.95;5.78;;;20.00;99.90;;;;;;5035483;28;20030;-90
2022/06/20 00:19:37;;;;;;;5.85;5.32;;;19.90;99.90;;;;;;5033954;28;20014;-89
2022/06/20 00:22:05;;;;;;;8.00;5.80;;;19.90;99.90;;;;;;5035448;28;20546;-90
2022/06/20 00:24:31;;;;;;;7.50;5.30;;;19.90;99.90;;;;;;5030648;28;20096;-89
2022/06/20 00:26:57;;;;;;;6.13;5.53;;;19.90;99.90;;;;;;5034414;28;20041;-93
2022/06/20 00:29:23;;;;;;;6.53;5.18;;;19.80;99.90;;;;;;5034005;28;20059;-93
2022/06/20 00:31:49;;;;;;;6.57;5.53;;;19.80;99.90;;;;;;5034060;28;20025;-92
2022/06/20 00:34:14;;;;;;;6.82;5.50;;;19.80;99.90;;;;;;5034952;28;20369;-93
2022/06/20 00:36:41;;;;;;;6.03;5.53;;;19.80;99.90;;;;;;5025279;28;20022;-93
2022/06/20 00:39:06;;;;;;;6.18;5.57;;;19.80;99.90;;;;;;5024509;28;20049;-91
2022/06/20 00:41:34;;;;;;;6.75;6.05;;;19.80;99.90;;;;;;5035340;28;20115;-92
2022/06/20 00:44:01;;;;;;;9.70;6.18;;;19.70;99.90;;;;;;5030950;28;20040;-93
2022/06/20 00:46:36;;;;;;;6.75;6.07;;;19.70;99.90;;;;;;5035142;28;20022;-93
2022/06/20 00:49:12;;;;;;;6.53;5.85;;;19.70;99.90;;;;;;5033723;28;20087;-90
2022/06/20 00:51:50;;;;;;;10.25;5.60;;;19.60;99.90;;;;;;5034281;28;20025;-90
2022/06/20 00:54:27;;;;;;;5.93;5.32;;;19.60;99.90;;;;;;5029709;28;20026;-90
2022/06/20 00:56:58;;;;;;;6.93;6.07;;;19.60;99.90;;;;;;5015284;28;20030;-90
2022/06/20 00:59:38;;;;;;;6.78;5.60;;;19.60;99.90;;;;;;5025612;28;20029;-91
2022/06/20 01:02:08;;;;;;;6.38;5.57;;;19.50;99.90;;;;;;5035081;28;20103;-90
2022/06/20 01:04:42;;;;;;;6.63;5.43;;;19.50;99.90;;;;;;5034620;28;20026;-90
2022/06/20 01:07:26;;;;;;;6.00;5.50;;;19.50;99.90;;;;;;5034977;28;20045;-91
2022/06/20 01:09:56;;;;;;;7.28;5.55;;;19.40;99.90;;;;;;5030697;28;20025;-90
2022/06/20 01:12:26;;;;;;;8.52;5.40;;;19.40;99.90;;;;;;5014828;28;20029;-90
2022/06/20 01:14:52;;;;;;;6.07;5.50;;;19.40;99.90;;;;;;5029622;28;20380;-90
2022/06/20 01:17:28;;;;;;;7.43;5.50;;;19.40;99.90;;;;;;5033540;28;20025;-91
2022/06/20 01:20:02;;;;;;;5.72;5.22;;;19.40;99.90;;;;;;5035261;28;20318;-93
2022/06/20 01:23:04;;;;;;;6.22;5.68;;;19.30;99.90;;;;;;5014895;28;20026;-93
2022/06/20 01:25:38;;;;;;;8.10;6.18;;;19.30;99.90;;;;;;5032498;28;20063;-92
2022/06/20 01:28:09;;;;;;;8.52;6.20;;;19.30;99.90;;;;;;5034212;28;20029;-93
2022/06/20 01:30:40;;;;;;;6.22;5.38;;;19.30;99.90;;;;;;5034661;28;20044;-90
2022/06/20 01:33:06;;;;;;;6.40;5.68;;;19.30;99.90;;;;;;5033482;28;20025;-92
2022/06/20 01:38:19;;;;;;;6.15;5.45;;;19.20;99.90;;;;;;5034183;28;20091;-91
2022/06/20 01:43:33;;;;;;;8.50;5.78;;;19.20;99.90;;;;;;5033531;28;20082;-90
2022/06/20 01:46:01;;;;;;;5.97;5.35;;;19.10;99.90;;;;;;5031666;28;20025;-91
2022/06/20 01:48:31;;;;;;;7.78;6.07;;;19.10;99.90;;;;;;5031889;28;20021;-91
2022/06/20 01:50:58;;;;;;;8.18;5.68;;;19.10;99.90;;;;;;5033377;28;20072;-91
2022/06/20 01:53:29;;;;;;;6.47;5.88;;;19.10;99.90;;;;;;5030244;28;20037;-91
2022/06/20 01:55:56;;;;;;;6.55;5.90;;;19.10;99.90;;;;;;5024958;28;20021;-91
2022/06/20 01:58:35;;;;;;;9.90;6.15;;;19.10;99.90;;;;;;5032193;28;20081;-91
2022/06/20 02:01:03;;;;;;;6.35;5.78;;;19.10;99.90;;;;;;5022066;28;20499;-91
2022/06/20 02:03:31;;;;;;;10.13;6.22;;;19.00;99.90;;;;;;5031163;28;20431;-91
2022/06/20 02:05:58;;;;;;;6.60;6.00;;;19.00;99.90;;;;;;5033130;28;20024;-91
2022/06/20 02:08:24;;;;;;;6.13;5.53;;;19.00;99.90;;;;;;5032638;28;20025;-92
2022/06/20 02:11:11;;;;;;;6.60;5.22;;;19.10;99.90;;;;;;5034686;28;20021;-91
2022/06/20 02:13:49;;;;;;;7.20;5.20;;;19.10;99.90;;;;;;5032657;28;20028;-91
2022/06/20 02:16:19;;;;;;;6.53;5.53;;;19.10;99.90;;;;;;5032391;28;20033;-91
2022/06/20 02:18:48;;;;;;;7.72;5.82;;;19.10;99.90;;;;;;5031743;28;20025;-92
2022/06/20 02:21:23;;;;;;;9.18;5.97;;;19.10;99.90;;;;;;5031651;28;20037;-91
2022/06/20 02:23:54;;;;;;;7.15;5.68;;;19.10;99.90;;;;;;5028553;28;20112;-91
2022/06/20 02:26:21;;;;;;;5.88;5.35;;;19.10;99.90;;;;;;5032644;28;20046;-91
2022/06/20 02:28:50;;;;;;;6.43;5.82;;;19.10;99.90;;;;;;5031538;28;20021;-91
2022/06/20 02:31:18;;;;;;;9.00;5.50;;;19.10;99.90;;;;;;5023329;28;20022;-92
2022/06/20 02:33:49;;;;;;;6.78;5.40;;;19.10;99.90;;;;;;5031569;28;20032;-92
2022/06/20 02:36:18;;;;;;;11.15;5.35;;;19.00;99.90;;;;;;5022820;28;20487;-91
2022/06/20 02:38:45;;;;;;;6.10;5.60;;;19.00;99.90;;;;;;5031114;28;20025;-91
2022/06/20 02:41:13;;;;;;;6.43;5.57;;;18.90;99.90;;;;;;5034225;28;20476;-91
2022/06/20 02:43:44;;;;;;;5.93;5.43;;;18.90;99.90;;;;;;5031227;28;20049;-91
2022/06/20 02:46:14;;;;;;;10.77;5.90;;;18.90;99.90;;;;;;5031979;28;20025;-91
2022/06/20 02:48:43;;;;;;;6.47;5.88;;;18.80;99.90;;;;;;5030580;28;20026;-93
2022/06/20 02:51:13;;;;;;;8.38;5.65;;;18.80;99.90;;;;;;5032727;28;20017;-92
2022/06/20 02:53:43;;;;;;;5.95;5.38;;;18.80;99.90;;;;;;5029856;28;20038;-92
2022/06/20 02:56:15;;;;;;;7.43;6.22;;;18.70;99.90;;;;;;5032643;28;20036;-93
2022/06/20 02:58:45;;;;;;;6.28;5.68;;;18.70;99.90;;;;;;5031733;28;20017;-92
2022/06/20 03:01:30;;;;;;;6.00;5.40;;;18.70;99.90;;;;;;5032378;28;20057;-92
2022/06/20 03:03:58;;;;;;;6.40;5.65;;;18.70;99.90;;;;;;5030300;28;20014;-90
2022/06/20 03:06:32;;;;;;;5.70;4.93;;;18.70;99.90;;;;;;5033179;28;20123;-92
2022/06/20 03:08:59;;;;;;;6.70;5.85;;;18.70;99.90;;;;;;5032557;28;20488;-91
2022/06/20 03:11:28;;;;;;;5.82;5.32;;;18.70;99.90;;;;;;5042986;28;20044;-92
2022/06/20 03:13:56;;;;;;;6.43;5.80;;;18.70;99.90;;;;;;5041917;28;20013;-92
2022/06/20 03:16:23;;;;;;;5.95;5.28;;;18.70;99.90;;;;;;5031948;28;20029;-92
2022/06/20 03:18:50;;;;;;;6.35;5.50;;;18.70;99.90;;;;;;5028038;28;20107;-91
2022/06/20 03:21:24;;;;;;;10.10;5.32;;;18.70;99.90;;;;;;5014905;28;20468;-90
2022/06/20 03:23:51;;;;;;;5.68;5.15;;;18.70;99.90;;;;;;5016329;28;20129;-92
2022/06/20 03:26:25;;;;;;;5.55;5.05;;;18.60;99.90;;;;;;5032970;28;20045;-92
2022/06/20 03:28:51;;;;;;;6.65;5.38;;;18.60;99.90;;;;;;5029613;28;20026;-92
2022/06/20 03:31:16;;;;;;;15.15;5.63;;;18.60;99.90;;;;;;5032959;28;20025;-91
2022/06/20 03:33:43;;;;;;;8.48;4.88;;;18.60;99.90;;;;;;5027732;28;20025;-92
2022/06/20 03:36:22;;;;;;;12.48;4.95;;;18.60;99.90;;;;;;5026542;28;20028;-92
2022/06/20 03:38:49;;;;;;;8.35;5.45;;;18.60;99.90;;;;;;5030065;28;20092;-89
2022/06/20 03:41:18;;;;;;;5.40;4.90;;;18.60;99.90;;;;;;5031554;28;20022;-92
2022/06/20 03:44:08;;;;;;;5.65;4.20;;;18.60;99.90;;;;;;5028357;28;20022;-91
2022/06/20 03:46:44;;;;;;;5.25;4.22;;;18.70;99.90;;;;;;5012788;28;20393;-90
2022/06/20 03:49:48;;;;;;;4.75;4.30;;;18.70;99.90;;;;;;5021790;28;20064;-92
2022/06/20 03:52:23;;;;;;;5.03;4.53;;;18.70;99.90;;;;;;5031537;28;20049;-91
2022/06/20 03:55:04;;;;;;;4.78;4.38;;;18.70;99.90;;;;;;5032331;28;20076;-91
2022/06/20 03:57:55;;;;;;;5.40;4.32;;;18.80;99.90;;;;;;5028785;28;20022;-92
2022/06/20 04:01:07;;;;;;;5.28;4.30;;;18.90;99.90;;;;;;5030336;28;20119;-93
2022/06/20 04:03:44;;;;;;;6.63;4.85;;;18.90;99.90;;;;;;5031275;28;20480;-91
2022/06/20 04:06:34;;;;;;;6.47;4.32;;;18.90;99.90;;;;;;5032943;28;20530;-92
2022/06/20 04:12:17;;;;;;;4.22;3.83;;;19.00;99.90;;;;;;5032471;28;20095;-91
2022/06/20 04:14:59;;;;;;;4.97;3.90;;;19.00;99.90;;;;;;5026767;28;20428;-94
2022/06/20 04:20:51;;;;;;;4.60;3.92;;;19.10;99.90;;;;;;5013924;28;20172;-94
2022/06/20 04:23:24;;;;;;;4.55;4.15;;;19.10;99.90;;;;;;5014282;28;20018;-95
2022/06/20 04:25:56;;;;;;;8.20;4.00;;;19.20;99.90;;;;;;5044361;28;20076;-93
2022/06/20 04:28:38;;;;;;;4.80;4.00;;;19.20;99.90;;;;;;5030322;28;20106;-92
2022/06/20 04:31:22;;;;;;;3.77;3.47;;;19.30;99.90;;;;;;5030422;28;20030;-93
2022/06/20 04:33:53;;;;;;;9.15;3.72;;;19.30;99.90;;;;;;5030372;28;20061;-91
2022/06/20 04:36:33;;;;;;;6.67;3.70;;;19.40;99.90;;;;;;5027451;28;20033;-92
2022/06/20 04:39:17;;;;;;;4.20;3.80;;;19.50;99.90;;;;;;5030022;28;20032;-95
2022/06/20 04:41:47;;;;;;;10.43;4.25;;;19.50;99.90;;;;;;5034601;28;20078;-92
2022/06/20 04:44:42;;;;;;;4.18;3.63;;;19.50;99.90;;;;;;5023119;28;20017;-92
2022/06/20 04:47:46;;;;;;;5.88;3.85;;;19.60;99.90;;;;;;5014776;28;20623;-95
2022/06/20 04:50:19;;;;;;;4.15;3.75;;;19.60;99.90;;;;;;5028748;28;20033;-93
2022/06/20 04:52:48;;;;;;;4.45;3.90;;;19.70;99.90;;;;;;5033535;28;20035;-90
2022/06/20 04:55:17;;;;;;;5.68;3.80;;;19.80;99.90;;;;;;5029637;28;20025;-92
2022/06/20 04:57:43;;;;;;;4.72;3.65;;;19.90;99.90;;;;;;5034485;28;20060;-92
2022/06/20 05:00:19;;;;;;;4.38;3.72;;;19.90;99.90;;;;;;5027164;28;20029;-93
2022/06/20 05:02:46;;;;;;;4.30;3.72;;;20.10;99.90;;;;;;5034493;28;20018;-93
2022/06/20 05:05:21;;;;;;;4.20;3.45;;;20.10;99.90;;;;;;5029547;28;20480;-93
2022/06/20 05:07:48;;;;;;;6.57;3.72;;;20.10;99.90;;;;;;5033841;28;20492;-92
2022/06/20 05:10:23;;;;;;;5.18;3.55;;;20.20;99.90;;;;;;5034028;28;20097;-93
2022/06/20 05:12:49;;;;;;;4.47;3.10;;;20.30;99.90;;;;;;5034427;28;20034;-93
2022/06/20 05:15:24;;;;;;;6.75;3.72;;;20.40;99.90;;;;;;5016894;28;20661;-93
2022/06/20 05:17:50;;;;;;;4.88;3.40;;;20.50;99.90;;;;;;5034142;28;20108;-92
2022/06/20 05:20:22;;;;;;;4.93;3.45;;;20.60;99.90;;;;;;5034009;28;20029;-92
2022/06/20 05:22:54;;;;;;;8.70;3.73;;;20.60;99.90;;;;;;5034518;28;20028;-93
2022/06/20 05:25:23;;;;;;;8.13;3.22;;;20.70;99.90;;;;;;5034792;28;20053;-93
2022/06/20 05:27:54;;;;;;;3.60;3.22;;;20.80;99.90;;;;;;5034901;28;20040;-93
2022/06/20 05:30:25;;;;;;;4.93;3.42;;;20.90;99.90;;;;;;5034725;28;20111;-93
2022/06/20 05:33:12;;;;;;;4.32;3.15;;;20.90;99.90;;;;;;5035029;28;20085;-95
2022/06/20 05:35:53;;;;;;;5.63;3.40;;;21.00;99.90;;;;;;5029535;28;20025;-93
2022/06/20 05:38:30;;;;;;;5.95;3.40;;;21.10;99.90;;;;;;5034305;28;20476;-93
2022/06/20 05:40:58;;;;;;;5.32;3.22;;;21.20;99.90;;;;;;5034757;28;20028;-94
2022/06/20 05:43:25;;;;;;;5.75;3.42;;;21.30;99.90;;;;;;5032830;28;20052;-93
2022/06/20 05:46:04;;;;;;;3.00;2.80;;;21.50;99.90;;;;;;5027081;28;20032;-93
2022/06/20 05:48:43;;;;;;;3.97;3.17;;;21.70;99.90;;;;;;5031179;28;20129;-93
2022/06/20 05:51:12;;;;;;;3.80;3.05;;;21.80;99.90;;;;;;5032785;28;20026;-94
2022/06/20 05:53:43;;;;;;;6.25;3.38;;;22.00;99.90;;;;;;5032015;28;20033;-93
2022/06/20 05:56:27;;;;;;;5.00;2.63;;;22.10;99.90;;;;;;5033339;28;20052;-92
2022/06/20 05:58:55;;;;;;;6.65;2.80;;;22.20;99.90;;;;;;5030630;28;20027;-93
2022/06/20 06:01:32;;;;;;;4.78;2.97;;;22.30;99.90;;;;;;5018637;28;20021;-91
2022/06/20 06:04:17;;;;;;;5.95;3.13;;;22.40;99.90;;;;;;5017162;28;20345;-94
2022/06/20 06:06:55;;;;;;;5.97;2.90;;;22.50;99.90;;;;;;5013684;28;20511;-93
2022/06/20 06:09:26;;;;;;;5.13;3.70;;;22.60;99.90;;;;;;5025711;28;20021;-93
2022/06/20 06:11:59;;;;;;;5.72;3.25;;;22.80;99.90;;;;;;5014705;28;20072;-93
2022/06/20 06:14:46;;;;;;;5.63;3.30;;;23.00;99.90;;;;;;5022925;28;20109;-93
2022/06/20 06:17:30;;;;;;;12.77;3.83;;;23.20;99.90;;;;;;5033156;28;20026;-93
2022/06/20 06:20:00;;;;;;;10.10;3.65;;;23.30;99.90;;;;;;5034239;28;20307;-92
2022/06/20 06:22:32;;;;;;;13.77;3.20;;;23.40;99.90;;;;;;5034580;28;20032;-93
2022/06/20 06:25:27;;;;;;;5.07;3.53;;;23.50;99.90;;;;;;5031715;28;20037;-94
2022/06/20 06:27:57;;;;;;;9.02;4.28;;;23.50;99.90;;;;;;5032738;28;20048;-94
2022/06/20 06:30:32;;;;;;;14.57;4.70;;;23.60;99.90;;;;;;5035910;28;20025;-94
2022/06/20 06:33:31;;;;;;;8.57;4.50;;;23.70;99.90;;;;;;5014707;28;20030;-93
2022/06/20 06:35:57;;;;;;;24.05;4.85;;;23.80;99.90;;;;;;5020738;28;20432;-92
2022/06/20 06:38:37;;;;;;;12.10;4.30;;;23.80;99.90;;;;;;5028794;28;20076;-95
2022/06/20 06:41:10;;;;;;;8.48;3.90;;;23.90;99.90;;;;;;5034391;28;20029;-92
2022/06/20 06:43:43;;;;;;;6.28;3.33;;;24.00;99.90;;;;;;5031868;28;20099;-90
2022/06/20 06:46:19;;;;;;;7.93;3.78;;;24.30;99.90;;;;;;5020995;28;20029;-91
2022/06/20 06:49:19;;;;;;;18.25;4.50;;;24.40;99.90;;;;;;5016607;28;20029;-94
2022/06/20 06:52:06;;;;;;;5.22;3.10;;;24.60;99.90;;;;;;5033170;28;20555;-93
2022/06/20 06:54:41;;;;;;;4.47;3.15;;;24.70;99.90;;;;;;5032355;28;20021;-92
2022/06/20 06:57:25;;;;;;;4.00;3.40;;;24.90;99.90;;;;;;5031960;28;20037;-91
2022/06/20 06:59:53;;;;;;;5.63;3.60;;;24.80;99.90;;;;;;5031814;28;20049;-91
2022/06/20 07:02:21;;;;;;;11.57;3.85;;;24.90;99.90;;;;;;5031697;28;20025;-91
2022/06/20 07:04:53;;;;;;;10.13;3.63;;;24.90;99.90;;;;;;5029537;28;20053;-92
2022/06/20 07:07:34;;;;;;;5.88;3.58;;;25.00;99.90;;;;;;5015560;28;20124;-91
2022/06/20 07:10:00;;;;;;;6.10;3.97;;;25.10;99.90;;;;;;5022118;28;20162;-90
2022/06/20 07:12:51;;;;;;;5.78;3.97;;;25.00;99.90;;;;;;5030474;28;20025;-91
2022/06/20 07:15:23;;;;;;;6.70;3.20;;;25.00;99.50;;;;;;5030536;28;20071;-89
2022/06/20 07:17:50;;;;;;;5.88;3.70;;;24.90;99.10;;;;;;5029429;28;20120;-91
2022/06/20 07:20:19;;;;;;;5.25;3.22;;;24.90;99.30;;;;;;5028384;28;20110;-89
2022/06/20 07:22:47;;;;;;;3.53;3.22;;;24.90;98.70;;;;;;5029037;28;20029;-89
2022/06/20 07:25:36;;;;;;;5.25;3.30;;;25.00;98.60;;;;;;5025496;28;20060;-90
2022/06/20 07:28:29;;;;;;;5.55;3.50;;;25.00;99.60;;;;;;5008907;28;20041;-90
2022/06/20 07:31:24;;;;;;;5.38;3.22;;;25.00;98.70;;;;;;5029768;28;20580;-91
2022/06/20 07:33:59;;;;;;;5.70;3.17;;;25.10;98.10;;;;;;5029930;28;20029;-91
2022/06/20 07:36:34;;;;;;;4.78;3.08;;;25.10;97.60;;;;;;5023582;28;20507;-90
2022/06/20 07:39:17;;;;;;;4.10;3.53;;;25.00;98.00;;;;;;5030783;28;20018;-91
2022/06/20 07:41:46;;;;;;;;;;;25.00;98.00;;;;;;5033408;28;20060;-90
2022/06/20 07:44:22;;;;;;;5.22;3.65;;;25.10;98.10;;;;;;5029073;28;19916;-91
2022/06/20 07:46:59;;;;;;;9.18;3.30;;;25.10;97.90;;;;;;5031233;28;20018;-90
2022/06/20 07:49:44;;;;;;;4.72;3.40;;;25.10;97.70;;;;;;5029011;28;20108;-90
2022/06/20 07:52:39;;;;;;;7.07;3.15;;;25.10;98.80;;;;;;5030625;28;20026;-89
2022/06/20 07:55:21;;;;;;;7.72;3.40;;;25.20;97.80;;;;;;5029884;28;20044;-89
2022/06/20 07:57:53;;;;;;;5.90;3.58;;;25.20;97.90;;;;;;5031550;28;20480;-91
2022/06/20 08:00:24;;;;;;;7.60;3.35;;;25.20;97.90;;;;;;5029967;28;20040;-88
2022/06/20 08:02:56;;;;;;;9.17;3.73;;;25.30;97.50;;;;;;5029957;28;20095;-90
2022/06/20 08:05:26;;;;;;;8.18;3.42;;;25.30;97.50;;;;;;5030477;28;20272;-90
2022/06/20 08:08:01;;;;;;;3.90;3.20;;;25.40;99.30;;;;;;5030366;28;20045;-91
2022/06/20 08:10:32;;;;;;;7.78;3.28;;;25.50;97.40;;;;;;5031626;28;20040;-90
2022/06/20 08:12:58;;;;;;;4.20;3.58;;;25.40;97.60;;;;;;5030828;28;20022;-90
2022/06/20 08:15:28;;;;;;;6.20;2.97;;;25.40;97.30;;;;;;5030191;28;20083;-90
2022/06/20 08:17:54;;;;;;;3.90;2.90;;;25.50;97.60;;;;;;5026553;28;20021;-90
2022/06/20 08:20:23;;;;;;;3.88;3.45;;;25.40;97.90;;;;;;5018094;28;20037;-90
2022/06/20 08:22:55;;;;;;;8.10;3.67;;;25.30;98.30;;;;;;5033872;28;20036;-88
2022/06/20 08:25:22;;;;;;;9.15;3.67;;;25.40;98.50;;;;;;5032722;28;20037;-90
2022/06/20 08:27:57;;;;;;;4.03;3.17;;;25.50;99.70;;;;;;5034640;28;20084;-90
2022/06/20 08:30:26;;;;;;;5.00;3.67;;;25.50;97.40;;;;;;5032824;28;20029;-90
2022/06/20 08:33:21;;;;;;;5.03;3.63;;;25.50;99.40;;;;;;5035039;28;20030;-90
2022/06/20 08:36:12;;;;;;;4.65;3.53;;;25.50;98.40;;;;;;5034522;28;20064;-90
2022/06/20 08:38:44;;;;;;;6.93;3.70;;;25.60;99.90;;;;;;5028173;28;20120;-90
2022/06/20 08:41:37;;;;;;;4.80;3.67;;;25.70;99.00;;;;;;5034368;28;20022;-89
2022/06/20 08:44:28;;;;;;;6.75;3.42;;;25.60;99.10;;;;;;5033332;28;20028;-90
2022/06/20 08:47:21;;;;;;;7.03;3.30;;;25.80;98.80;;;;;;5029943;28;20040;-90
2022/06/20 08:50:11;;;;;;;6.45;3.35;;;25.80;99.70;;;;;;5032116;28;20100;-91
2022/06/20 08:53:01;;;;;;;6.28;3.10;;;25.80;99.40;;;;;;5015436;28;20516;-90
2022/06/20 08:55:52;;;;;;;8.23;4.43;;;25.90;98.10;;;;;;5033776;28;20029;-90
2022/06/20 08:58:32;;;;;;;5.68;3.90;;;25.90;99.90;;;;;;5033304;28;20083;-90
2022/06/20 09:01:19;;;;;;;7.32;3.65;;;26.00;99.90;;;;;;5034675;28;20052;-90
2022/06/20 09:03:57;;;;;;;5.13;4.10;;;26.00;99.90;;;;;;5031315;28;20083;-90
2022/06/20 09:06:50;;;;;;;14.65;6.38;;;25.80;99.90;;;;;;5031020;28;20112;-90
2022/06/20 09:09:24;;;;;;;;;;;25.80;99.90;;;;;;5030842;28;20431;-90
2022/06/20 09:12:18;;;;;;;8.20;4.20;;;25.70;99.90;;;;;;5027796;28;19905;-90
2022/06/20 09:15:05;;;;;;;5.68;4.22;;;25.50;99.90;;;;;;5030587;28;20025;-90
2022/06/20 09:17:55;;;;;;;7.43;4.50;;;25.40;99.90;;;;;;5027374;28;20439;-91
2022/06/20 09:20:35;;;;;;;8.20;4.13;;;25.40;99.90;;;;;;5030894;28;20489;-89
2022/06/20 09:23:16;;;;;;;9.05;4.60;;;25.70;99.90;;;;;;5011991;28;20034;-88
2022/06/20 09:26:12;;;;;;;8.50;4.47;;;25.50;99.90;;;;;;5029235;28;20057;-89
2022/06/20 09:28:57;;;;;;;7.60;5.10;;;25.30;99.90;;;;;;5030507;28;20033;-92
2022/06/20 09:32:00;;;;;;;7.78;4.72;;;25.20;99.90;;;;;;5026662;28;20022;-89
2022/06/20 09:34:57;;;;;;;12.55;5.10;;;25.20;99.90;;;;;;5026650;28;20061;-90
2022/06/20 09:37:41;;;;;;;5.78;4.80;;;25.40;99.90;;;;;;5029178;28;20036;-90
2022/06/20 09:40:19;;;;;;;6.30;4.78;;;25.60;99.90;;;;;;5026418;28;20025;-89
2022/06/20 09:43:03;;;;;;;8.32;4.80;;;25.50;99.90;;;;;;5010003;28;20041;-89
2022/06/20 09:45:59;;;;;;;4.32;3.92;;;25.60;99.90;;;;;;5029111;28;20466;-90
2022/06/20 09:48:38;;;;;;;15.07;4.50;;;25.50;99.90;;;;;;5029180;28;20042;-91
2022/06/20 09:51:12;;;;;;;5.40;4.03;;;25.40;99.90;;;;;;5026110;28;20029;-88
2022/06/20 09:53:45;;;;;;;5.82;3.95;;;25.40;99.90;;;;;;5029561;28;20029;-92
2022/06/20 09:56:22;;;;;;;6.72;4.20;;;25.40;99.90;;;;;;5028215;28;20059;-91
2022/06/20 09:59:20;;;;;;;5.78;4.22;;;25.50;99.90;;;;;;5029230;28;20075;-89
2022/06/20 10:01:48;;;;;;;6.57;3.90;;;25.60;99.90;;;;;;5027036;28;20532;-88
2022/06/20 10:04:41;;;;;;;6.10;4.50;;;25.60;99.90;;;;;;5028370;28;20033;-89
2022/06/20 10:07:31;;;;;;;7.80;3.70;;;25.60;99.90;;;;;;5029668;28;20033;-90
2022/06/20 10:10:30;;;;;;;8.80;4.15;;;25.50;99.90;;;;;;5025503;28;20048;-89
2022/06/20 10:13:20;;;;;;;6.43;4.03;;;25.40;99.90;;;;;;5008937;28;20022;-89
2022/06/20 10:16:28;;;;;;;8.82;4.25;;;25.20;99.90;;;;;;5029390;28;20101;-90
2022/06/20 10:19:00;;;;;;;9.82;4.90;;;25.30;99.90;;;;;;5008553;28;20025;-92
2022/06/20 10:21:38;;;;;;;6.50;4.47;;;25.20;99.90;;;;;;5029012;28;20041;-90
2022/06/20 10:24:31;;;;;;;8.43;4.80;;;25.50;99.90;;;;;;5027530;28;20060;-90
2022/06/20 10:27:02;;;;;;;6.70;4.90;;;25.70;99.90;;;;;;5028441;28;20041;-90
2022/06/20 10:29:59;;;;;;;5.53;4.90;;;25.70;99.90;;;;;;5028553;28;20041;-90
2022/06/20 10:32:46;;;;;;;5.20;4.53;;;25.50;99.90;;;;;;5029790;28;20384;-91
2022/06/20 10:35:17;;;;;;;7.55;5.47;;;25.40;99.90;;;;;;5018921;28;20026;-87
2022/06/20 10:38:11;;;;;;;6.90;5.03;;;25.50;99.90;;;;;;5032486;28;20029;-92
2022/06/20 10:40:52;;;;;;;7.78;4.93;;;25.50;99.90;;;;;;5033554;28;20104;-85
2022/06/20 10:43:42;;;;;;;8.60;5.00;;;25.60;99.90;;;;;;5032425;28;20091;-84
2022/06/20 10:46:19;;;;;;;7.85;5.32;;;25.60;99.90;;;;;;5031543;28;20030;-94
2022/06/20 10:49:22;;;;;;;7.85;5.70;;;25.40;99.90;;;;;;5030366;28;20553;-87
2022/06/20 10:52:09;;;;;;;11.77;5.10;;;25.50;99.90;;;;;;5026209;28;20121;-93
2022/06/20 10:54:42;;;;;;;8.07;4.97;;;25.60;99.90;;;;;;5035144;28;20025;-93
2022/06/20 10:57:17;;;;;;;;;;;25.80;99.90;;;;;;5045515;28;20041;-92
2022/06/20 10:59:51;;;;;;;12.23;5.22;;;26.10;99.90;;;;;;5031020;28;19909;-87
2022/06/20 11:02:36;;;;;;;6.07;4.90;;;25.80;99.90;;;;;;5034269;28;20076;-83
2022/06/20 11:05:04;;;;;;;9.70;5.63;;;25.80;99.90;;;;;;5037248;28;20029;-89
2022/06/20 11:07:36;;;;;;;7.72;5.43;;;25.80;99.90;;;;;;5032159;28;20042;-88
2022/06/20 11:10:11;;;;;;;8.27;5.13;;;25.90;99.90;;;;;;5031313;28;20022;-89
2022/06/20 11:12:43;;;;;;;7.50;5.88;;;26.10;99.90;;;;;;5030114;28;20030;-89
2022/06/20 11:15:22;;;;;;;8.45;5.38;;;26.20;99.90;;;;;;5022682;28;20117;-90
2022/06/20 11:18:00;;;;;;;8.88;5.50;;;26.30;99.90;;;;;;5031660;28;20432;-89
2022/06/20 11:20:42;;;;;;;9.05;5.22;;;26.00;99.90;;;;;;5030942;28;20022;-89
2022/06/20 11:23:21;;;;;;;9.38;5.72;;;26.00;99.90;;;;;;5013379;28;20108;-89
2022/06/20 11:26:08;;;;;;;8.95;5.93;;;26.00;99.90;;;;;;5030068;28;20072;-86
2022/06/20 11:28:40;;;;;;;11.90;5.72;;;25.90;99.90;;;;;;5030319;28;20551;-88
2022/06/20 11:31:37;;;;;;;7.17;4.60;;;26.20;99.90;;;;;;5031486;28;20032;-83
2022/06/20 11:34:24;;;;;;;8.27;4.85;;;26.30;99.90;;;;;;5026846;28;20370;-83
2022/06/20 11:37:01;;;;;;;11.30;5.40;;;26.30;99.90;;;;;;5026001;28;20018;-87
2022/06/20 11:39:34;;;;;;;8.23;5.07;;;26.60;99.90;;;;;;5027720;28;20029;-88
2022/06/20 11:42:14;;;;;;;10.00;5.47;;;26.50;99.90;;;;;;5031397;28;20026;-88
2022/06/20 11:45:04;;;;;;;8.63;5.50;;;26.60;99.90;;;;;;5027020;28;20037;-87
2022/06/20 11:47:54;;;;;;;11.55;5.72;;;26.50;99.90;;;;;;5023658;28;20099;-83
2022/06/20 11:50:28;;;;;;;11.98;5.25;;;27.00;99.90;;;;;;5030107;28;20057;-91
2022/06/20 11:52:58;;;;;;;8.68;4.90;;;27.40;99.90;;;;;;5010086;28;20117;-84
2022/06/20 11:56:04;;;;;;;14.00;4.75;;;27.40;99.90;;;;;;5031128;28;20083;-86
2022/06/20 11:58:50;;;;;;;5.55;4.40;;;27.20;99.90;;;;;;5018834;28;20033;-83
2022/06/20 12:01:27;;;;;;;5.57;4.20;;;27.00;99.90;;;;;;5034655;28;20095;-86
2022/06/20 12:04:05;;;;;;;8.98;4.35;;;27.20;99.90;;;;;;5033786;28;20396;-83
2022/06/20 12:06:37;;;;;;;6.97;4.40;;;30.00;99.90;;;;;;5032936;28;20091;-83
2022/06/20 12:09:05;;;;;;;;;;;31.90;99.90;;;;;;5034481;28;20061;-87
2022/06/20 12:11:50;;;;;;;6.45;3.75;;;33.00;99.90;;;;;;5036164;28;19912;-85
2022/06/20 12:15:02;;;;;;;8.00;4.35;;;33.60;99.90;;;;;;5031016;28;20013;-86
2022/06/20 12:17:48;;;;;;;7.75;3.97;;;33.80;99.90;;;;;;5031836;28;20030;-93
2022/06/20 12:23:33;;;;;;;7.38;4.35;;;33.80;99.90;;;;;;5018324;28;20041;-90
2022/06/20 12:26:14;;;;;;;7.32;3.95;;;34.90;99.90;;;;;;5033371;28;20064;-85
2022/06/20 12:28:44;;;;;;;11.20;3.85;;;34.70;99.90;;;;;;5033897;28;20041;-84
2022/06/20 12:31:28;;;;;;;13.23;3.78;;;35.20;99.90;;;;;;5033909;28;20025;-84
2022/06/20 12:33:59;;;;;;;8.05;3.92;;;35.30;99.90;;;;;;5030281;28;20025;-81
2022/06/20 12:36:35;;;;;;;3.97;3.40;;;34.00;99.90;;;;;;5030410;28;20024;-86
2022/06/20 12:39:19;;;;;;;8.20;4.20;;;34.50;99.90;;;;;;5032667;28;20363;-84
2022/06/20 12:41:54;;;;;;;7.93;3.65;;;34.10;99.90;;;;;;5034509;28;20037;-87
2022/06/20 12:44:37;;;;;;;9.45;4.00;;;35.20;99.90;;;;;;5033176;28;20049;-81
2022/06/20 12:47:18;;;;;;;10.30;4.00;;;36.00;99.90;;;;;;5031079;28;20075;-85
2022/06/20 12:49:49;;;;;;;10.77;4.22;;;36.50;99.90;;;;;;5030008;28;20036;-86
2022/06/20 12:52:53;;;;;;;13.52;3.95;;;35.90;99.90;;;;;;5032788;28;20379;-84
2022/06/20 12:55:52;;;;;;;6.55;3.60;;;36.30;99.90;;;;;;5032984;28;20048;-85
2022/06/20 12:58:54;;;;;;;9.82;3.72;;;37.20;99.90;;;;;;5032120;28;20484;-88
2022/06/20 13:01:34;;;;;;;8.85;3.88;;;37.80;99.90;;;;;;5031921;28;20041;-85
2022/06/20 13:04:21;;;;;;;14.02;4.38;;;37.00;99.90;;;;;;5031466;28;20030;-82
2022/06/20 13:06:52;;;;;;;7.80;4.10;;;36.50;99.90;;;;;;5031489;28;20025;-86
2022/06/20 13:09:43;;;;;;;5.43;3.72;;;35.80;99.90;;;;;;5030272;28;20116;-85
2022/06/20 13:12:34;;;;;;;8.00;3.90;;;35.70;99.90;;;;;;5032449;28;20068;-86
2022/06/20 13:15:27;;;;;;;10.20;3.35;;;36.20;99.90;;;;;;5029895;28;20175;-86
2022/06/20 13:18:24;;;;;;;6.63;4.10;;;36.90;99.90;;;;;;5013760;28;20272;-87
2022/06/20 13:21:08;;;;;;;7.38;4.05;;;36.60;99.90;;;;;;5033251;28;20044;-85
2022/06/20 13:23:58;;;;;;;5.50;3.13;;;35.10;99.90;;;;;;5032815;28;20032;-83
2022/06/20 13:26:28;;;;;;;4.50;3.38;;;36.60;99.90;;;;;;5029914;28;20057;-87
2022/06/20 13:29:20;;;;;;;9.73;3.92;;;36.10;99.90;;;;;;5029769;28;20716;-87
2022/06/20 13:32:15;;;;;;;7.93;3.72;;;36.40;99.90;;;;;;5032412;28;20080;-86
2022/06/20 13:35:09;;;;;;;9.52;3.92;;;36.70;99.90;;;;;;5021623;28;20120;-87
2022/06/20 13:38:14;;;;;;;6.97;3.92;;;36.40;99.90;;;;;;5030337;28;20388;-85
2022/06/20 13:40:49;;;;;;;9.43;3.88;;;36.90;99.90;;;;;;5035516;28;20474;-80
2022/06/20 13:43:40;;;;;;;8.88;3.75;;;36.40;99.90;;;;;;5032070;28;20112;-85
2022/06/20 13:46:19;;;;;;;11.27;4.07;;;37.60;99.90;;;;;;5024255;28;20388;-83
2022/06/20 13:48:49;;;;;;;12.00;4.80;;;37.60;99.90;;;;;;5031999;28;20033;-84
2022/06/20 13:51:42;;;;;;;11.73;4.45;;;37.50;99.90;;;;;;5033134;28;20022;-83
2022/06/20 13:54:41;;;;;;;10.32;4.38;;;36.70;99.90;;;;;;5030527;28;20022;-83
2022/06/20 13:57:23;;;;;;;13.18;3.85;;;35.00;99.90;;;;;;5028739;28;20092;-85